Time;durP1;ratioP1;P1;durP2;ratioP2;P2;SDS_P1;SDS_P2;PMS_P1;PMS_P2;Temp;Humidity;BMP_temperature;BMP_pressure;BME280_temperature;BME280_humidity;BME280_pressure;Samples;Min_cycle;Max_cycle;Signal;HPM_P1;HPM_P2
2021/10/15 00:01:57;;;;;;;9.30;6.35;;;12.70;99.90;;;;;;5032013;28;20056;-79
2021/10/15 00:04:23;;;;;;;9.05;6.13;;;12.70;99.90;;;;;;5013520;28;20051;-78
2021/10/15 00:06:48;;;;;;;7.18;5.50;;;12.60;99.90;;;;;;5026689;28;20456;-77
2021/10/15 00:09:14;;;;;;;6.72;5.35;;;12.60;99.90;;;;;;5027676;28;20044;-77
2021/10/15 00:11:39;;;;;;;8.27;6.25;;;12.50;99.90;;;;;;5028643;28;20342;-77
2021/10/15 00:14:05;;;;;;;7.47;5.78;;;12.50;99.90;;;;;;5040735;28;20033;-79
2021/10/15 00:16:30;;;;;;;6.00;4.93;;;12.40;99.90;;;;;;5029010;28;20109;-77
2021/10/15 00:18:56;;;;;;;7.28;5.13;;;12.30;99.90;;;;;;5032099;28;20096;-78
2021/10/15 00:21:22;;;;;;;6.05;4.97;;;12.30;99.90;;;;;;5029810;28;20172;-80
2021/10/15 00:23:47;;;;;;;6.28;5.60;;;12.30;99.90;;;;;;5036851;28;20036;-79
2021/10/15 00:26:13;;;;;;;9.27;5.03;;;12.30;99.90;;;;;;5029221;28;20028;-77
2021/10/15 00:28:38;;;;;;;8.65;5.00;;;12.30;99.90;;;;;;5023929;28;20040;-78
2021/10/15 00:31:04;;;;;;;7.28;4.85;;;12.30;99.90;;;;;;5024121;28;20028;-78
2021/10/15 00:33:30;;;;;;;5.72;5.03;;;12.20;99.90;;;;;;5045540;28;20112;-78
2021/10/15 00:35:55;;;;;;;6.43;5.32;;;12.10;99.90;;;;;;5016634;28;20112;-79
2021/10/15 00:38:21;;;;;;;6.30;4.55;;;12.10;99.90;;;;;;5019372;28;20040;-79
2021/10/15 00:40:46;;;;;;;5.38;4.70;;;12.10;99.90;;;;;;5023358;28;20065;-77
2021/10/15 00:43:12;;;;;;;6.43;4.10;;;12.00;99.90;;;;;;5025000;28;20037;-78
2021/10/15 00:45:37;;;;;;;5.13;4.63;;;12.00;99.90;;;;;;5034082;28;20123;-78
2021/10/15 00:48:03;;;;;;;5.30;4.60;;;12.00;99.90;;;;;;5035605;28;20118;-78
2021/10/15 00:50:29;;;;;;;6.22;4.82;;;12.10;99.90;;;;;;5027890;28;20576;-78
2021/10/15 00:52:55;;;;;;;4.60;4.18;;;12.00;99.90;;;;;;5022524;28;20033;-78
2021/10/15 00:55:20;;;;;;;5.90;4.35;;;12.00;99.90;;;;;;5024564;28;20037;-78
2021/10/15 00:57:46;;;;;;;7.78;4.80;;;11.90;99.90;;;;;;5022699;28;20506;-78
2021/10/15 01:00:12;;;;;;;6.00;3.72;;;12.00;99.90;;;;;;5031346;28;20389;-78
2021/10/15 01:02:37;;;;;;;5.47;4.20;;;11.90;99.90;;;;;;5029079;28;20028;-78
2021/10/15 01:05:05;;;;;;;8.05;4.60;;;11.90;99.90;;;;;;5012044;28;20034;-76
2021/10/15 01:07:31;;;;;;;6.45;4.32;;;11.90;99.90;;;;;;5017863;28;20037;-78
2021/10/15 01:09:57;;;;;;;4.18;3.40;;;11.80;99.90;;;;;;5031195;28;20132;-76
2021/10/15 01:12:23;;;;;;;5.45;3.88;;;11.90;99.90;;;;;;5030559;28;20022;-77
2021/10/15 01:14:48;;;;;;;5.25;4.03;;;12.00;99.90;;;;;;5041280;28;20039;-80
2021/10/15 01:17:14;;;;;;;4.78;4.13;;;11.90;99.90;;;;;;5028991;28;20098;-77
2021/10/15 01:19:39;;;;;;;3.92;3.15;;;12.00;99.90;;;;;;5028175;28;20099;-77
2021/10/15 01:22:07;;;;;;;6.90;4.05;;;12.00;99.90;;;;;;5031247;28;20037;-76
2021/10/15 01:24:33;;;;;;;5.93;3.53;;;12.10;99.90;;;;;;5032559;28;20029;-76
2021/10/15 01:27:07;;;;;;;4.22;3.83;;;12.10;99.90;;;;;;5023768;28;20039;-76
2021/10/15 01:29:33;;;;;;;3.80;2.95;;;12.20;99.90;;;;;;5026086;28;20061;-77
2021/10/15 01:31:59;;;;;;;4.47;3.72;;;12.20;99.90;;;;;;5022003;28;20034;-76
2021/10/15 01:34:25;;;;;;;6.85;3.53;;;12.30;99.90;;;;;;5017556;28;20111;-77
2021/10/15 01:36:50;;;;;;;5.57;3.58;;;12.30;99.90;;;;;;5033983;28;20371;-77
2021/10/15 01:39:16;;;;;;;6.22;3.78;;;12.40;99.90;;;;;;5013968;28;20058;-77
2021/10/15 01:41:41;;;;;;;5.45;3.13;;;12.40;99.90;;;;;;5038936;28;20025;-79
2021/10/15 01:44:07;;;;;;;4.63;3.40;;;12.50;99.90;;;;;;5027875;28;20112;-78
2021/10/15 01:46:33;;;;;;;4.68;3.08;;;12.50;99.90;;;;;;5021755;28;20042;-78
2021/10/15 01:48:58;;;;;;;6.85;2.80;;;12.60;99.90;;;;;;5027425;28;20033;-78
2021/10/15 01:51:24;;;;;;;4.95;3.20;;;12.60;99.90;;;;;;5026481;28;20030;-79
2021/10/15 01:53:49;;;;;;;3.88;2.92;;;12.70;99.90;;;;;;5031947;28;20041;-79
2021/10/15 01:56:14;;;;;;;6.18;3.45;;;12.70;99.90;;;;;;5022194;28;20100;-78
2021/10/15 01:58:40;;;;;;;4.65;3.42;;;12.80;99.90;;;;;;5024893;28;20036;-79
2021/10/15 02:01:05;;;;;;;5.13;3.78;;;12.80;99.90;;;;;;5032876;28;20064;-79
2021/10/15 02:03:31;;;;;;;4.35;3.45;;;12.80;99.90;;;;;;5029855;28;20056;-79
2021/10/15 02:05:56;;;;;;;5.10;3.65;;;12.90;99.90;;;;;;5023114;28;20087;-79
2021/10/15 02:08:22;;;;;;;4.10;3.17;;;12.90;99.90;;;;;;5028769;28;20045;-78
2021/10/15 02:10:47;;;;;;;4.43;3.20;;;12.90;99.90;;;;;;5025763;28;20033;-78
2021/10/15 02:13:13;;;;;;;4.10;2.97;;;13.00;99.90;;;;;;5023495;28;20033;-77
2021/10/15 02:15:39;;;;;;;4.28;3.38;;;13.00;99.90;;;;;;5024488;28;20091;-78
2021/10/15 02:18:04;;;;;;;3.67;2.92;;;13.00;99.90;;;;;;5019176;28;20032;-79
2021/10/15 02:20:30;;;;;;;3.88;3.38;;;13.00;99.90;;;;;;5020366;28;20029;-78
2021/10/15 02:22:55;;;;;;;3.78;2.80;;;13.00;99.90;;;;;;5027945;28;20516;-79
2021/10/15 02:25:22;;;;;;;3.40;2.95;;;13.00;99.90;;;;;;5035947;28;20556;-81
2021/10/15 02:27:47;;;;;;;6.22;3.33;;;13.00;99.90;;;;;;5037972;28;20037;-78
2021/10/15 02:30:15;;;;;;;3.30;3.00;;;13.00;99.90;;;;;;5027248;28;20070;-78
2021/10/15 02:32:41;;;;;;;3.50;3.20;;;13.00;99.90;;;;;;5012631;28;20040;-78
2021/10/15 02:35:07;;;;;;;4.13;2.97;;;13.10;99.80;;;;;;5028450;28;20033;-76
2021/10/15 02:37:33;;;;;;;5.45;3.47;;;13.00;99.80;;;;;;5036491;28;20029;-78
2021/10/15 02:39:58;;;;;;;4.93;2.95;;;13.00;99.80;;;;;;5028629;28;20026;-78
2021/10/15 02:42:24;;;;;;;4.07;3.22;;;13.00;99.60;;;;;;5035587;28;20033;-77
2021/10/15 02:44:49;;;;;;;5.22;3.72;;;13.00;99.60;;;;;;5036920;28;20490;-77
2021/10/15 02:47:15;;;;;;;7.35;2.80;;;13.00;99.60;;;;;;5033773;28;20034;-77
2021/10/15 02:49:40;;;;;;;7.32;3.40;;;13.00;99.70;;;;;;5022221;28;20513;-77
2021/10/15 02:52:06;;;;;;;5.05;3.03;;;13.00;99.60;;;;;;5019544;28;20492;-77
2021/10/15 02:54:31;;;;;;;4.72;2.75;;;13.10;99.50;;;;;;5034823;28;20037;-78
2021/10/15 02:56:57;;;;;;;3.33;2.60;;;13.00;99.50;;;;;;5035525;28;20048;-78
2021/10/15 02:59:22;;;;;;;3.47;2.83;;;13.10;99.60;;;;;;5039666;28;20053;-79
2021/10/15 03:01:48;;;;;;;3.42;2.80;;;13.00;99.60;;;;;;5031726;28;20057;-78
2021/10/15 03:04:13;;;;;;;3.28;2.70;;;13.10;99.50;;;;;;5022988;28;20039;-76
2021/10/15 03:06:39;;;;;;;2.83;2.53;;;13.00;99.40;;;;;;5018667;28;20042;-77
2021/10/15 03:09:05;;;;;;;2.95;2.58;;;13.00;99.50;;;;;;5027618;28;20072;-77
2021/10/15 03:11:30;;;;;;;4.57;2.80;;;13.00;99.30;;;;;;5031828;28;20403;-77
2021/10/15 03:13:55;;;;;;;3.15;2.80;;;13.00;99.40;;;;;;5034408;28;20059;-76
2021/10/15 03:16:21;;;;;;;5.18;3.28;;;13.00;99.30;;;;;;5028321;28;20039;-76
2021/10/15 03:18:47;;;;;;;3.13;2.63;;;13.00;99.20;;;;;;5034409;28;20091;-76
2021/10/15 03:21:12;;;;;;;2.83;2.53;;;13.00;99.20;;;;;;5024244;28;20040;-77
2021/10/15 03:23:37;;;;;;;2.83;2.30;;;13.10;99.10;;;;;;5031796;28;20430;-77
2021/10/15 03:26:03;;;;;;;3.90;2.80;;;13.10;99.10;;;;;;5033566;28;20042;-75
2021/10/15 03:28:29;;;;;;;3.55;2.80;;;13.10;98.80;;;;;;5027702;28;20125;-79
2021/10/15 03:30:54;;;;;;;2.92;2.65;;;13.10;98.90;;;;;;5028727;28;20478;-79
2021/10/15 03:33:20;;;;;;;2.47;2.28;;;13.10;98.90;;;;;;5021038;28;20443;-77
2021/10/15 03:35:45;;;;;;;2.58;2.25;;;13.10;98.80;;;;;;5030857;28;20062;-77
2021/10/15 03:38:11;;;;;;;2.70;2.40;;;13.10;98.90;;;;;;5020500;28;20091;-78
2021/10/15 03:40:36;;;;;;;3.97;2.17;;;13.10;98.90;;;;;;5023833;28;20102;-79
2021/10/15 03:43:03;;;;;;;3.10;2.53;;;13.10;98.80;;;;;;5013352;28;20057;-79
2021/10/15 03:45:29;;;;;;;3.97;2.20;;;13.00;98.90;;;;;;5032956;28;20131;-80
2021/10/15 03:47:55;;;;;;;3.97;2.60;;;13.10;99.10;;;;;;5026190;28;20517;-78
2021/10/15 03:50:20;;;;;;;7.35;2.90;;;13.10;98.80;;;;;;5029369;28;20112;-78
2021/10/15 03:52:46;;;;;;;4.05;2.67;;;13.20;98.90;;;;;;5025511;28;20112;-79
2021/10/15 03:55:12;;;;;;;2.88;2.55;;;13.20;98.80;;;;;;5014858;28;20496;-80
2021/10/15 03:57:38;;;;;;;5.97;2.53;;;13.20;98.70;;;;;;5039401;28;20098;-79
2021/10/15 04:00:07;;;;;;;2.85;2.53;;;13.20;98.80;;;;;;5041465;28;20176;-79
2021/10/15 04:02:36;;;;;;;3.20;2.22;;;13.20;98.80;;;;;;5030398;28;20029;-79
2021/10/15 04:05:01;;;;;;;3.70;2.47;;;13.20;98.80;;;;;;5043469;28;20033;-80
2021/10/15 04:07:26;;;;;;;2.97;2.53;;;13.20;98.90;;;;;;5035987;28;20033;-76
2021/10/15 04:09:52;;;;;;;3.30;2.38;;;13.10;98.70;;;;;;5031563;28;20038;-77
2021/10/15 04:12:17;;;;;;;3.60;2.35;;;13.20;98.80;;;;;;5031656;28;20390;-80
2021/10/15 04:14:43;;;;;;;3.35;2.47;;;13.10;98.80;;;;;;5036480;28;20041;-77
2021/10/15 04:17:08;;;;;;;4.53;2.38;;;13.20;98.70;;;;;;5035186;28;20037;-80
2021/10/15 04:19:34;;;;;;;3.85;2.50;;;13.20;98.70;;;;;;5026164;28;20029;-80
2021/10/15 04:21:59;;;;;;;4.82;3.28;;;13.20;98.60;;;;;;5032503;28;20033;-79
2021/10/15 04:24:25;;;;;;;6.65;2.85;;;13.20;98.80;;;;;;5035392;28;20042;-77
2021/10/15 04:26:50;;;;;;;3.40;2.38;;;13.20;98.80;;;;;;5030409;28;20107;-77
2021/10/15 04:29:15;;;;;;;3.72;3.38;;;13.20;98.70;;;;;;5035779;28;20033;-77
2021/10/15 04:31:41;;;;;;;4.38;2.67;;;13.20;98.60;;;;;;5027639;28;20116;-77
2021/10/15 04:34:07;;;;;;;2.88;2.38;;;13.30;98.60;;;;;;5025198;28;20041;-78
2021/10/15 04:36:32;;;;;;;4.50;3.58;;;13.20;98.70;;;;;;5029294;28;20094;-77
2021/10/15 04:38:58;;;;;;;3.97;2.90;;;13.20;98.80;;;;;;5025614;28;20030;-77
2021/10/15 04:41:23;;;;;;;4.07;3.00;;;13.20;98.80;;;;;;5024130;28;20488;-78
2021/10/15 04:43:49;;;;;;;4.13;2.80;;;13.20;98.80;;;;;;5027892;28;20273;-77
2021/10/15 04:46:15;;;;;;;4.35;3.00;;;13.20;98.80;;;;;;5028402;28;20037;-78
2021/10/15 04:48:40;;;;;;;4.72;3.25;;;13.30;98.80;;;;;;5022431;28;20045;-77
2021/10/15 04:51:06;;;;;;;3.90;3.08;;;13.30;98.90;;;;;;5021397;28;20030;-77
2021/10/15 04:53:31;;;;;;;3.60;3.03;;;13.30;98.80;;;;;;5006679;28;20030;-77
2021/10/15 04:55:57;;;;;;;5.45;2.90;;;13.20;98.80;;;;;;5034847;28;20036;-78
2021/10/15 04:58:23;;;;;;;4.03;3.17;;;13.20;98.90;;;;;;5027852;28;20041;-77
2021/10/15 05:00:48;;;;;;;4.20;3.25;;;13.20;99.00;;;;;;5027481;28;20045;-77
2021/10/15 05:03:14;;;;;;;3.65;2.92;;;13.20;98.90;;;;;;5030512;28;20108;-79
2021/10/15 05:05:43;;;;;;;8.73;3.45;;;13.20;98.90;;;;;;5047885;28;20328;-79
2021/10/15 05:08:14;;;;;;;4.53;3.38;;;13.10;99.00;;;;;;5027657;28;20030;-77
2021/10/15 05:10:41;;;;;;;3.35;2.88;;;13.10;99.00;;;;;;5050332;28;20044;-79
2021/10/15 05:13:09;;;;;;;4.88;3.67;;;13.20;99.00;;;;;;5042527;28;20507;-79
2021/10/15 05:15:35;;;;;;;7.03;3.10;;;13.20;98.90;;;;;;5035934;28;20033;-78
2021/10/15 05:18:00;;;;;;;3.10;2.80;;;13.20;98.70;;;;;;5027135;28;20029;-77
2021/10/15 05:20:26;;;;;;;4.07;3.00;;;13.30;98.80;;;;;;5011607;28;20026;-78
2021/10/15 05:22:51;;;;;;;4.05;2.97;;;13.30;98.80;;;;;;5016063;28;20061;-78
2021/10/15 05:25:17;;;;;;;4.50;3.47;;;13.30;98.90;;;;;;5030256;28;20041;-78
2021/10/15 05:27:44;;;;;;;3.30;3.00;;;13.30;98.80;;;;;;5031930;28;20037;-77
2021/10/15 05:30:11;;;;;;;3.92;2.50;;;13.30;98.90;;;;;;5026841;28;20504;-77
2021/10/15 05:32:37;;;;;;;3.60;2.92;;;13.30;98.70;;;;;;5025663;28;20033;-77
2021/10/15 05:35:05;;;;;;;6.03;3.33;;;13.20;98.60;;;;;;5026836;28;20120;-77
2021/10/15 05:37:31;;;;;;;4.45;3.15;;;13.20;98.60;;;;;;5027009;28;20366;-77
2021/10/15 05:39:56;;;;;;;2.92;2.50;;;13.20;98.50;;;;;;5022885;28;20037;-76
2021/10/15 05:42:22;;;;;;;4.15;3.75;;;13.20;98.50;;;;;;5012464;28;20040;-77
2021/10/15 05:44:48;;;;;;;5.68;3.40;;;13.20;98.60;;;;;;5022900;28;20061;-78
2021/10/15 05:47:14;;;;;;;3.53;3.10;;;13.10;98.60;;;;;;5024813;28;20032;-78
2021/10/15 05:49:40;;;;;;;6.15;3.55;;;13.10;98.60;;;;;;5026092;28;20030;-78
2021/10/15 05:52:11;;;;;;;3.17;2.88;;;13.20;98.80;;;;;;5026409;28;20481;-78
2021/10/15 05:54:47;;;;;;;7.00;3.63;;;13.20;98.80;;;;;;5007098;28;20061;-78
2021/10/15 06:00:08;;;;;;;5.03;3.30;;;13.20;98.60;;;;;;5024771;28;20041;-78
2021/10/15 06:02:35;;;;;;;4.03;3.60;;;13.20;98.40;;;;;;5024984;28;20029;-78
2021/10/15 06:05:52;;;;;;;4.57;3.20;;;13.20;98.70;;;;;;5007426;28;20040;-78
2021/10/15 06:14:11;;;;;;;4.85;3.45;;;13.20;98.60;;;;;;5026616;28;20091;-77
2021/10/15 06:15:51;;;;;;;6.93;3.65;;;13.10;98.70;;;;;;5014799;28;20037;-78
2021/10/15 06:18:20;;;;;;;6.82;4.32;;;13.20;98.70;;;;;;5031989;28;20029;-78
2021/10/15 06:20:46;;;;;;;4.72;4.22;;;13.20;98.60;;;;;;5046454;28;20023;-78
2021/10/15 06:23:12;;;;;;;6.43;4.00;;;13.10;98.70;;;;;;5046375;28;20112;-78
2021/10/15 06:25:38;;;;;;;6.45;3.97;;;13.10;98.60;;;;;;5042157;28;20029;-78
2021/10/15 06:28:04;;;;;;;6.85;3.70;;;13.10;98.60;;;;;;5014528;28;20509;-78
2021/10/15 06:30:31;;;;;;;4.88;3.95;;;13.10;98.60;;;;;;5006453;28;20034;-77
2021/10/15 06:32:56;;;;;;;4.68;3.85;;;13.20;98.70;;;;;;5022509;28;20025;-78
2021/10/15 06:35:22;;;;;;;5.57;3.72;;;13.20;98.70;;;;;;5026315;28;20041;-78
2021/10/15 06:37:49;;;;;;;6.72;3.92;;;13.20;98.60;;;;;;5025449;28;20025;-77
2021/10/15 06:40:15;;;;;;;7.85;4.22;;;13.30;98.40;;;;;;5025273;28;20037;-78
2021/10/15 06:42:40;;;;;;;5.18;4.53;;;13.40;98.40;;;;;;5025153;28;20096;-79
2021/10/15 06:45:06;;;;;;;5.95;4.18;;;13.40;98.30;;;;;;5020762;28;20037;-77
2021/10/15 06:47:32;;;;;;;6.00;4.05;;;13.40;98.30;;;;;;5020691;28;20046;-77
2021/10/15 06:49:58;;;;;;;6.78;4.50;;;13.40;98.30;;;;;;5018358;28;20555;-77
2021/10/15 06:52:24;;;;;;;5.55;4.00;;;13.50;98.10;;;;;;5024056;28;20601;-77
2021/10/15 06:54:50;;;;;;;5.20;3.53;;;13.50;98.00;;;;;;5022152;28;20159;-77
2021/10/15 06:57:15;;;;;;;4.22;3.80;;;13.60;98.00;;;;;;5025467;28;20034;-77
2021/10/15 06:59:41;;;;;;;8.50;3.55;;;13.60;97.80;;;;;;5015527;28;20040;-79
2021/10/15 07:02:07;;;;;;;7.32;3.63;;;13.60;97.70;;;;;;5018906;28;20029;-77
2021/10/15 07:04:32;;;;;;;5.10;3.95;;;13.60;97.60;;;;;;5008807;28;20041;-80
2021/10/15 07:06:58;;;;;;;6.68;3.80;;;13.60;97.40;;;;;;5011363;28;20034;-77
2021/10/15 07:09:23;;;;;;;5.28;4.13;;;13.60;97.40;;;;;;5028488;28;20029;-78
2021/10/15 07:11:50;;;;;;;5.57;3.17;;;13.50;97.50;;;;;;5030932;28;20033;-78
2021/10/15 07:14:16;;;;;;;6.40;3.72;;;13.50;97.40;;;;;;5030637;28;20109;-77
2021/10/15 07:16:41;;;;;;;5.47;4.13;;;13.50;97.40;;;;;;5029433;28;20390;-78
2021/10/15 07:19:07;;;;;;;5.60;3.58;;;13.50;97.20;;;;;;5028072;28;20029;-78
2021/10/15 07:21:33;;;;;;;5.65;4.00;;;13.50;97.20;;;;;;5029347;28;20581;-78
2021/10/15 07:23:59;;;;;;;5.03;4.07;;;13.50;97.10;;;;;;5029070;28;20164;-77
2021/10/15 07:26:25;;;;;;;6.35;4.35;;;13.50;97.30;;;;;;5028369;28;20037;-79
2021/10/15 07:28:50;;;;;;;7.57;4.15;;;13.50;97.30;;;;;;5027842;28;20034;-79
2021/10/15 07:31:16;;;;;;;4.72;3.35;;;13.50;97.30;;;;;;5027841;28;20191;-77
2021/10/15 07:33:42;;;;;;;4.63;3.25;;;13.50;97.10;;;;;;5014630;28;20050;-78
2021/10/15 07:36:08;;;;;;;5.80;3.55;;;13.50;97.10;;;;;;5011324;28;20033;-78
2021/10/15 07:38:33;;;;;;;7.20;3.50;;;13.50;97.00;;;;;;5024740;28;20032;-79
2021/10/15 07:40:59;;;;;;;7.55;3.70;;;13.50;97.20;;;;;;5030593;28;20179;-77
2021/10/15 07:43:24;;;;;;;6.18;3.75;;;13.50;97.00;;;;;;5030542;28;20044;-77
2021/10/15 07:45:50;;;;;;;6.85;4.00;;;13.50;96.90;;;;;;5030772;28;20037;-77
2021/10/15 07:48:16;;;;;;;5.25;3.30;;;13.50;97.10;;;;;;5029196;28;20642;-78
2021/10/15 07:50:41;;;;;;;5.30;4.43;;;13.60;96.90;;;;;;5041534;28;20035;-79
2021/10/15 07:53:07;;;;;;;8.57;3.88;;;13.50;96.60;;;;;;5027736;28;20026;-79
2021/10/15 07:55:32;;;;;;;6.68;3.70;;;13.50;96.70;;;;;;5030232;28;20041;-79
2021/10/15 07:57:58;;;;;;;5.43;3.67;;;13.60;96.70;;;;;;5029536;28;20025;-77
2021/10/15 08:00:23;;;;;;;4.20;3.15;;;13.60;96.80;;;;;;5028552;28;20112;-77
2021/10/15 08:02:50;;;;;;;3.30;3.00;;;13.70;96.80;;;;;;5029925;28;20034;-78
2021/10/15 08:05:17;;;;;;;6.63;3.42;;;13.70;96.40;;;;;;5030097;28;20030;-78
2021/10/15 08:07:43;;;;;;;5.53;3.38;;;13.80;96.50;;;;;;5029148;28;20048;-78
2021/10/15 08:10:10;;;;;;;3.25;2.67;;;13.80;96.30;;;;;;5028635;28;20521;-78
2021/10/15 08:12:37;;;;;;;6.93;3.50;;;13.90;96.20;;;;;;5030024;28;20109;-77
2021/10/15 08:15:04;;;;;;;6.35;3.45;;;14.00;95.70;;;;;;5028258;28;20083;-78
2021/10/15 08:17:29;;;;;;;7.20;2.90;;;14.00;95.70;;;;;;5029749;28;20493;-78
2021/10/15 08:19:55;;;;;;;4.50;3.00;;;14.10;95.80;;;;;;5019584;28;20087;-76
2021/10/15 08:22:20;;;;;;;4.20;2.67;;;14.10;95.50;;;;;;5026243;28;20033;-77
2021/10/15 08:24:46;;;;;;;4.80;2.65;;;14.10;95.60;;;;;;5027903;28;20072;-79
2021/10/15 08:27:13;;;;;;;5.00;2.72;;;14.20;95.60;;;;;;5026658;28;20037;-77
2021/10/15 08:29:39;;;;;;;5.47;3.08;;;14.20;95.70;;;;;;5027106;28;20100;-78
2021/10/15 08:32:06;;;;;;;2.70;2.22;;;14.30;95.60;;;;;;5027134;28;20026;-79
2021/10/15 08:34:31;;;;;;;4.18;2.25;;;14.40;94.90;;;;;;5027976;28;20034;-78
2021/10/15 08:36:57;;;;;;;8.27;2.08;;;14.50;94.40;;;;;;5028278;28;20084;-79
2021/10/15 08:39:26;;;;;;;5.80;2.33;;;14.50;94.80;;;;;;5028037;28;20041;-78
2021/10/15 08:41:56;;;;;;;3.75;2.10;;;14.50;94.40;;;;;;5029114;28;20025;-79
2021/10/15 08:44:21;;;;;;;4.85;1.92;;;14.70;94.00;;;;;;5013805;28;20049;-78
2021/10/15 08:46:47;;;;;;;3.13;1.85;;;14.70;93.60;;;;;;5010736;28;20034;-78
2021/10/15 08:49:13;;;;;;;4.30;1.98;;;14.80;93.70;;;;;;5021550;28;20052;-78
2021/10/15 08:51:38;;;;;;;4.18;1.67;;;14.80;93.50;;;;;;5020081;28;20117;-78
2021/10/15 08:54:05;;;;;;;5.20;2.95;;;14.80;93.20;;;;;;5024088;28;20390;-78
2021/10/15 08:56:31;;;;;;;3.15;1.70;;;14.70;93.30;;;;;;5039222;28;20041;-78
2021/10/15 08:58:59;;;;;;;4.80;2.17;;;14.70;93.30;;;;;;5028910;28;20061;-79
2021/10/15 09:01:38;;;;;;;4.28;1.75;;;14.70;93.20;;;;;;5028604;28;20029;-78
2021/10/15 09:04:05;;;;;;;3.33;2.30;;;14.60;93.20;;;;;;5019854;28;20075;-78
2021/10/15 09:06:39;;;;;;;4.28;1.95;;;14.70;93.40;;;;;;5015432;28;20029;-78
2021/10/15 09:09:05;;;;;;;4.32;1.80;;;14.60;92.90;;;;;;5026310;28;20030;-78
2021/10/15 09:11:47;;;;;;;2.53;1.63;;;14.70;93.60;;;;;;5025383;28;20482;-77
2021/10/15 09:14:18;;;;;;;3.28;1.90;;;14.80;93.40;;;;;;5026724;28;20036;-79
2021/10/15 09:16:55;;;;;;;2.25;1.92;;;15.00;93.20;;;;;;5027152;28;20038;-78
2021/10/15 09:19:33;;;;;;;5.05;2.00;;;15.00;92.50;;;;;;5025104;28;20180;-78
2021/10/15 09:22:04;;;;;;;2.13;1.52;;;15.10;92.50;;;;;;5026318;28;20034;-76
2021/10/15 09:24:43;;;;;;;2.95;1.70;;;15.10;92.30;;;;;;5025326;28;20068;-79
2021/10/15 09:27:34;;;;;;;3.47;1.48;;;15.00;92.50;;;;;;5025537;28;20068;-79
2021/10/15 09:30:13;;;;;;;1.67;1.40;;;15.10;92.70;;;;;;5028182;28;20030;-78
2021/10/15 09:32:41;;;;;;;4.10;2.75;;;15.10;92.60;;;;;;5010554;28;20033;-79
2021/10/15 09:35:09;;;;;;;4.03;1.45;;;15.10;92.50;;;;;;5010319;28;20084;-76
2021/10/15 09:37:37;;;;;;;5.10;1.70;;;15.20;92.50;;;;;;5022696;28;20060;-78
2021/10/15 09:40:16;;;;;;;3.35;2.15;;;15.20;92.60;;;;;;5009631;28;20026;-77
2021/10/15 09:42:50;;;;;;;2.83;1.73;;;15.20;92.40;;;;;;5020968;28;20041;-77
2021/10/15 09:45:25;;;;;;;2.38;1.60;;;15.20;92.20;;;;;;5024673;28;20114;-77
2021/10/15 09:47:58;;;;;;;2.47;1.58;;;15.20;92.50;;;;;;5031398;28;20497;-78
2021/10/15 09:50:25;;;;;;;4.53;1.80;;;15.20;92.70;;;;;;5022096;28;20529;-79
2021/10/15 09:52:55;;;;;;;4.28;1.73;;;15.20;92.20;;;;;;5027317;28;20490;-78
2021/10/15 09:55:31;;;;;;;2.38;1.40;;;15.20;92.10;;;;;;5027656;28;20382;-78
2021/10/15 09:58:11;;;;;;;1.73;1.60;;;15.10;92.10;;;;;;5020341;28;20025;-77
2021/10/15 10:00:38;;;;;;;4.13;1.77;;;15.10;92.40;;;;;;5024825;28;20045;-76
2021/10/15 10:03:03;;;;;;;3.40;2.47;;;15.00;92.40;;;;;;5024903;28;20017;-76
2021/10/15 10:05:30;;;;;;;4.97;1.75;;;15.00;92.50;;;;;;5024931;28;20636;-77
2021/10/15 10:07:57;;;;;;;2.15;1.77;;;15.10;92.50;;;;;;5025276;28;20163;-79
2021/10/15 10:10:25;;;;;;;3.63;1.75;;;15.20;92.70;;;;;;5025235;28;20079;-79
2021/10/15 10:12:52;;;;;;;5.93;1.80;;;15.20;92.60;;;;;;5026637;28;20026;-77
2021/10/15 10:15:21;;;;;;;2.63;1.45;;;15.30;92.20;;;;;;5026269;28;20033;-78
2021/10/15 10:18:14;;;;;;;1.65;1.17;;;15.30;92.40;;;;;;5026225;28;20106;-78
2021/10/15 10:20:44;;;;;;;2.70;1.25;;;15.30;92.40;;;;;;5020768;28;20576;-77
2021/10/15 10:23:39;;;;;;;5.75;1.10;;;15.30;92.10;;;;;;5026903;28;20052;-78
2021/10/15 10:26:11;;;;;;;6.43;1.55;;;15.40;92.30;;;;;;5016898;28;20049;-77
2021/10/15 10:28:39;;;;;;;2.60;1.30;;;15.40;92.10;;;;;;5024441;28;20435;-78
2021/10/15 10:31:22;;;;;;;3.55;1.73;;;15.40;91.90;;;;;;5026290;28;20026;-79
2021/10/15 10:33:55;;;;;;;1.63;1.05;;;15.50;92.00;;;;;;5026020;28;20037;-80
2021/10/15 10:36:22;;;;;;;3.05;1.55;;;15.50;91.80;;;;;;5025956;28;20120;-79
2021/10/15 10:38:47;;;;;;;8.95;1.60;;;15.60;91.90;;;;;;5025039;28;20470;-79
2021/10/15 10:41:15;;;;;;;2.17;1.55;;;15.70;91.50;;;;;;5026351;28;20022;-77
2021/10/15 10:43:43;;;;;;;2.88;1.48;;;15.60;91.20;;;;;;5026313;28;20437;-77
2021/10/15 10:46:09;;;;;;;4.57;1.33;;;15.60;91.10;;;;;;5029234;28;20393;-77
2021/10/15 10:48:50;;;;;;;2.20;1.27;;;15.60;91.40;;;;;;5006039;28;20442;-79
2021/10/15 10:51:23;;;;;;;2.10;1.40;;;15.70;91.60;;;;;;5023651;28;20030;-77
2021/10/15 10:54:01;;;;;;;2.03;1.40;;;15.80;91.00;;;;;;5034227;28;20075;-78
2021/10/15 10:56:52;;;;;;;2.63;1.10;;;15.80;91.10;;;;;;5007821;28;20030;-81
2021/10/15 10:59:18;;;;;;;3.00;1.63;;;15.90;91.20;;;;;;5007245;28;20486;-80
2021/10/15 11:01:50;;;;;;;2.05;1.40;;;15.90;91.00;;;;;;5018056;28;20033;-79
2021/10/15 11:04:35;;;;;;;2.13;1.48;;;15.90;91.60;;;;;;5022997;28;20030;-80
2021/10/15 11:07:02;;;;;;;3.65;1.98;;;15.90;91.20;;;;;;5020643;28;20041;-80
2021/10/15 11:09:28;;;;;;;3.75;1.27;;;15.80;91.30;;;;;;5021193;28;20489;-79
2021/10/15 11:11:54;;;;;;;4.15;1.38;;;15.80;90.80;;;;;;5026625;28;20517;-80
2021/10/15 11:14:22;;;;;;;2.00;1.73;;;15.70;91.30;;;;;;5019303;28;20104;-77
2021/10/15 11:16:47;;;;;;;3.63;1.80;;;15.60;91.40;;;;;;5033993;28;20222;-79
2021/10/15 11:19:18;;;;;;;3.17;2.65;;;15.60;91.60;;;;;;5026845;28;20522;-81
2021/10/15 11:21:44;;;;;;;2.20;1.85;;;15.50;92.00;;;;;;5019638;28;20052;-79
2021/10/15 11:24:13;;;;;;;3.60;1.63;;;15.50;91.70;;;;;;5026054;28;20402;-78
2021/10/15 11:26:39;;;;;;;2.13;1.60;;;15.60;91.70;;;;;;5024391;28;20406;-79
2021/10/15 11:29:06;;;;;;;2.88;2.55;;;15.50;91.60;;;;;;5025643;28;20037;-79
2021/10/15 11:31:31;;;;;;;4.43;2.10;;;15.40;91.80;;;;;;5016504;28;20030;-78
2021/10/15 11:34:08;;;;;;;3.33;1.70;;;15.30;92.10;;;;;;5011104;28;20037;-80
2021/10/15 11:36:33;;;;;;;2.97;2.03;;;15.10;92.10;;;;;;5006597;28;20100;-79
2021/10/15 11:39:00;;;;;;;4.50;2.72;;;15.00;92.60;;;;;;5007528;28;20205;-79
2021/10/15 11:41:25;;;;;;;3.42;1.95;;;15.00;92.70;;;;;;5004268;28;20092;-77
2021/10/15 11:43:51;;;;;;;3.50;2.00;;;14.90;92.80;;;;;;5024523;28;20057;-79
2021/10/15 11:46:20;;;;;;;3.33;2.08;;;14.90;92.80;;;;;;5024608;28;20033;-78
2021/10/15 11:48:48;;;;;;;2.95;2.15;;;14.80;93.10;;;;;;5023033;28;20042;-79
2021/10/15 11:51:20;;;;;;;3.28;2.20;;;14.80;93.50;;;;;;5022755;28;20678;-79
2021/10/15 11:53:47;;;;;;;2.85;2.15;;;14.80;93.40;;;;;;5024671;28;20466;-78
2021/10/15 11:56:15;;;;;;;3.38;1.83;;;14.80;93.60;;;;;;5015283;28;20084;-79
2021/10/15 11:58:43;;;;;;;6.88;2.72;;;14.80;94.10;;;;;;5023914;28;20100;-80
2021/10/15 12:01:16;;;;;;;3.55;1.88;;;14.70;94.40;;;;;;5025589;28;20029;-78
2021/10/15 12:03:44;;;;;;;4.75;2.30;;;14.70;94.60;;;;;;5028788;28;20390;-77
2021/10/15 12:06:21;;;;;;;5.80;2.17;;;14.60;94.90;;;;;;5040214;28;20468;-80
2021/10/15 12:08:48;;;;;;;2.88;2.33;;;14.60;95.20;;;;;;5028782;28;20033;-79
2021/10/15 12:11:26;;;;;;;2.83;2.33;;;14.50;95.30;;;;;;5028715;28;20071;-79
2021/10/15 12:13:53;;;;;;;4.20;2.30;;;14.50;95.20;;;;;;5028743;28;20482;-78
2021/10/15 12:16:29;;;;;;;5.30;2.15;;;14.40;95.30;;;;;;5029189;28;20033;-78
2021/10/15 12:19:05;;;;;;;5.03;2.45;;;14.40;95.40;;;;;;5028703;28;20033;-79
2021/10/15 12:21:33;;;;;;;4.90;2.83;;;14.50;95.60;;;;;;5028453;28;20756;-78
2021/10/15 12:23:59;;;;;;;3.30;2.53;;;14.50;95.40;;;;;;5028930;28;20022;-79
2021/10/15 12:26:25;;;;;;;4.35;2.70;;;14.50;96.20;;;;;;5028610;28;20041;-79
2021/10/15 12:28:52;;;;;;;2.78;2.33;;;14.40;96.40;;;;;;5023155;28;20044;-78
2021/10/15 12:31:35;;;;;;;5.45;2.40;;;14.40;96.70;;;;;;5013611;28;20026;-78
2021/10/15 12:34:13;;;;;;;4.18;2.40;;;14.40;97.00;;;;;;5011949;28;20071;-79
2021/10/15 12:36:41;;;;;;;5.10;2.70;;;14.40;97.40;;;;;;5026546;28;20486;-79
2021/10/15 12:39:21;;;;;;;4.18;2.55;;;14.40;97.50;;;;;;5028311;28;20029;-78
2021/10/15 12:41:48;;;;;;;6.78;3.25;;;14.30;97.80;;;;;;5030988;28;20098;-78
2021/10/15 12:44:22;;;;;;;4.82;3.25;;;14.30;97.40;;;;;;5028803;28;20251;-80
2021/10/15 12:47:04;;;;;;;5.13;3.00;;;14.20;97.40;;;;;;5023326;28;20029;-80
2021/10/15 12:49:51;;;;;;;4.72;3.10;;;14.20;97.50;;;;;;5027205;28;20056;-79
2021/10/15 12:52:34;;;;;;;3.78;2.97;;;14.10;97.40;;;;;;5028018;28;20041;-78
2021/10/15 12:55:15;;;;;;;4.57;3.13;;;14.10;96.90;;;;;;5027578;28;20042;-78
2021/10/15 12:57:42;;;;;;;3.13;2.58;;;14.10;97.10;;;;;;5028050;28;20033;-79
2021/10/15 13:00:19;;;;;;;7.57;2.70;;;14.10;97.20;;;;;;5017224;28;20521;-78